Time;durP1;ratioP1;P1;durP2;ratioP2;P2;SDS_P1;SDS_P2;PMS_P1;PMS_P2;Temp;Humidity;BMP_temperature;BMP_pressure;BME280_temperature;BME280_humidity;BME280_pressure;Samples;Min_cycle;Max_cycle;Signal;HPM_P1;HPM_P2
2024/01/27 00:00:38;;;;;;;6.93;2.20;;;;;;;6.16;60.48;102484.41;4131203;28;20105;-65
2024/01/27 00:02:41;;;;;;;8.45;2.40;;;;;;;6.15;60.40;102499.03;4130413;28;20041;-65
2024/01/27 00:04:44;;;;;;;8.00;2.50;;;;;;;6.14;60.53;102499.81;4131231;28;20034;-65
2024/01/27 00:06:46;;;;;;;12.55;3.00;;;;;;;6.10;61.10;102503.91;4129525;28;20038;-65
2024/01/27 00:08:51;;;;;;;7.90;2.17;;;;;;;6.06;60.95;102508.75;4130592;28;20034;-66
2024/01/27 00:10:55;;;;;;;8.10;2.50;;;;;;;6.05;61.14;102507.84;4132319;28;20042;-65
2024/01/27 00:12:58;;;;;;;7.53;2.80;;;;;;;6.01;60.89;102500.69;4129905;28;20508;-66
2024/01/27 00:15:01;;;;;;;9.40;3.17;;;;;;;5.94;61.07;102499.38;4131697;28;20045;-65
2024/01/27 00:17:04;;;;;;;12.38;4.47;;;;;;;5.79;61.40;102503.53;4132130;28;20225;-66
2024/01/27 00:19:07;;;;;;;8.82;2.53;;;;;;;5.73;61.12;102508.28;4139796;28;20149;-66
2024/01/27 00:21:10;;;;;;;11.70;3.13;;;;;;;5.73;61.64;102511.75;4130862;28;20038;-66
2024/01/27 00:23:14;;;;;;;10.57;2.95;;;;;;;5.72;61.70;102509.97;4113035;28;20417;-66
2024/01/27 00:25:18;;;;;;;5.95;3.28;;;;;;;5.78;61.54;102501.72;4131239;28;20556;-66
2024/01/27 00:27:21;;;;;;;12.23;2.92;;;;;;;5.78;61.41;102504.31;4129907;28;20065;-65
2024/01/27 00:29:24;;;;;;;8.68;2.60;;;;;;;5.72;61.24;102497.06;4131752;28;20053;-65
2024/01/27 00:31:27;;;;;;;8.13;2.72;;;;;;;5.65;61.72;102504.28;4129941;28;20085;-64
2024/01/27 00:33:30;;;;;;;9.15;2.90;;;;;;;5.58;61.84;102497.81;4145913;28;20424;-65
2024/01/27 00:35:33;;;;;;;9.10;3.35;;;;;;;5.55;61.75;102503.66;4131493;28;20038;-64
2024/01/27 00:37:35;;;;;;;7.28;2.72;;;;;;;5.55;62.18;102507.94;4131313;28;20509;-65
2024/01/27 00:39:37;;;;;;;12.48;3.53;;;;;;;5.56;62.27;102505.47;4131102;28;20515;-64
2024/01/27 00:41:42;;;;;;;7.03;2.40;;;;;;;5.58;62.30;102509.03;4131237;28;20552;-64
2024/01/27 00:43:45;;;;;;;10.32;3.33;;;;;;;5.57;62.38;102520.13;4130523;28;20027;-64
2024/01/27 00:45:48;;;;;;;7.70;3.00;;;;;;;5.55;62.44;102523.44;4146293;28;20121;-64
2024/01/27 00:47:51;;;;;;;11.68;3.15;;;;;;;5.54;62.42;102524.22;4127108;28;20043;-65
2024/01/27 00:49:55;;;;;;;8.48;2.63;;;;;;;5.53;62.48;102525.00;4130523;28;20030;-64
2024/01/27 00:51:58;;;;;;;8.68;2.72;;;;;;;5.46;62.62;102521.13;4127718;28;20517;-65
2024/01/27 00:54:02;;;;;;;13.52;3.13;;;;;;;5.42;62.88;102519.09;4131588;28;20113;-64
2024/01/27 00:56:05;;;;;;;7.03;2.55;;;;;;;5.41;62.88;102517.31;4130615;28;20043;-64
2024/01/27 00:58:08;;;;;;;8.30;3.40;;;;;;;5.40;62.70;102529.31;4129498;28;20052;-65
2024/01/27 01:00:13;;;;;;;9.00;2.67;;;;;;;5.34;63.24;102528.88;4130007;28;20561;-64
2024/01/27 01:02:16;;;;;;;10.70;2.80;;;;;;;5.30;63.56;102533.72;4127126;28;20034;-64
2024/01/27 01:04:18;;;;;;;8.25;2.88;;;;;;;5.32;63.43;102533.03;4130886;28;20037;-64
2024/01/27 01:06:21;;;;;;;9.98;2.60;;;;;;;5.27;63.96;102533.50;4129894;28;20042;-64
2024/01/27 01:08:23;;;;;;;8.27;3.30;;;;;;;5.24;64.03;102529.94;4127968;28;20050;-65
2024/01/27 01:10:26;;;;;;;6.93;2.45;;;;;;;5.20;64.07;102534.78;4129090;28;20042;-64
2024/01/27 01:12:29;;;;;;;10.18;2.30;;;;;;;5.19;64.20;102535.56;4126608;28;20046;-65
2024/01/27 01:14:34;;;;;;;6.07;2.45;;;;;;;5.18;64.12;102532.09;4130875;28;20049;-65
2024/01/27 01:16:36;;;;;;;16.25;3.47;;;;;;;5.15;64.48;102531.88;4129618;28;20130;-65
2024/01/27 01:18:39;;;;;;;11.00;2.90;;;;;;;5.17;64.31;102543.19;4131647;28;20130;-65
2024/01/27 01:20:43;;;;;;;6.60;2.78;;;;;;;5.15;64.26;102537.03;4130989;28;20034;-65
2024/01/27 01:22:46;;;;;;;8.25;2.33;;;;;;;5.12;63.80;102544.53;4130098;28;20030;-65
2024/01/27 01:24:47;;;;;;;8.85;2.13;;;;;;;5.09;63.84;102546.03;4129957;28;20042;-66
2024/01/27 01:26:50;;;;;;;6.22;2.42;;;;;;;5.04;64.18;102538.84;4130208;28;20534;-65
2024/01/27 01:28:53;;;;;;;11.45;2.67;;;;;;;5.01;63.86;102550.66;4130651;28;20034;-65
2024/01/27 01:30:58;;;;;;;10.98;3.28;;;;;;;4.97;63.81;102567.56;4129581;28;20044;-65
2024/01/27 01:32:59;;;;;;;8.05;2.92;;;;;;;4.91;63.96;102569.72;4128542;28;20041;-65
2024/01/27 01:35:03;;;;;;;5.53;2.45;;;;;;;4.88;64.26;102570.38;4129989;28;20050;-65
2024/01/27 01:37:06;;;;;;;7.97;2.88;;;;;;;4.88;64.24;102575.53;4122370;28;20042;-65
2024/01/27 01:39:11;;;;;;;10.07;2.63;;;;;;;4.89;64.15;102573.84;4130303;28;20034;-65
2024/01/27 01:41:14;;;;;;;;;;;;;;;4.79;64.41;102577.47;4130873;28;20097;-65
2024/01/27 01:43:16;;;;;;;8.63;2.53;;;;;;;4.84;64.61;102578.69;4129985;28;19968;-64
2024/01/27 01:45:20;;;;;;;11.15;3.78;;;;;;;4.88;64.33;102572.97;4130081;28;20451;-64
2024/01/27 01:47:24;;;;;;;9.47;2.87;;;;;;;4.86;64.70;102573.63;4131300;28;20496;-65
2024/01/27 01:49:27;;;;;;;8.75;3.15;;;;;;;4.88;64.85;102564.34;4129319;28;20958;-64
2024/01/27 01:51:31;;;;;;;9.50;2.50;;;;;;;4.88;65.13;102572.97;4129423;28;20126;-65
2024/01/27 01:53:34;;;;;;;11.85;3.45;;;;;;;4.86;64.67;102571.06;4129224;28;20194;-64
2024/01/27 01:55:36;;;;;;;11.05;3.55;;;;;;;4.83;64.48;102571.75;4130457;28;20392;-64
2024/01/27 01:57:39;;;;;;;8.85;2.58;;;;;;;4.78;64.44;102573.09;4129824;28;20369;-64
2024/01/27 01:59:42;;;;;;;9.88;2.70;;;;;;;4.76;64.48;102568.59;4130494;28;20034;-64
2024/01/27 02:01:45;;;;;;;8.10;2.92;;;;;;;4.70;64.74;102563.91;4128786;28;20045;-64
2024/01/27 02:03:57;;;;;;;9.60;3.00;;;;;;;4.66;65.16;102573.09;4131400;28;20038;-64
2024/01/27 02:05:59;;;;;;;8.60;3.20;;;;;;;4.55;65.89;102571.41;4134020;28;20492;-64
2024/01/27 02:08:04;;;;;;;8.82;3.22;;;;;;;4.51;66.02;102588.34;4132962;28;20050;-64
2024/01/27 02:10:13;;;;;;;8.23;3.10;;;;;;;4.37;66.61;102583.84;4125748;28;20065;-65
2024/01/27 02:12:16;;;;;;;8.75;3.20;;;;;;;4.33;66.82;102586.97;4131183;28;20038;-65
2024/01/27 02:14:19;;;;;;;8.43;2.83;;;;;;;4.33;66.84;102584.41;4148917;28;20377;-65
2024/01/27 02:16:21;;;;;;;10.27;3.58;;;;;;;4.35;66.65;102585.41;4133664;28;20049;-65
2024/01/27 02:18:24;;;;;;;10.57;3.10;;;;;;;4.32;67.27;102591.25;4133819;28;20034;-64
2024/01/27 02:20:29;;;;;;;7.72;2.63;;;;;;;4.32;67.09;102595.47;4133742;28;20044;-64
2024/01/27 02:22:31;;;;;;;8.38;2.40;;;;;;;4.30;67.41;102591.91;4146958;28;20046;-64
2024/01/27 02:24:53;;;;;;;10.90;2.88;;;;;;;4.31;67.27;102599.75;4132179;28;20045;-64
2024/01/27 02:26:56;;;;;;;11.95;3.58;;;;;;;4.29;67.07;102591.03;4133510;28;20121;-64
2024/01/27 02:28:59;;;;;;;10.77;3.10;;;;;;;4.31;67.15;102593.72;4131878;28;20045;-64
2024/01/27 02:31:01;;;;;;;10.13;3.05;;;;;;;4.35;67.17;102600.84;4132197;28;20416;-64
2024/01/27 02:33:05;;;;;;;12.07;3.45;;;;;;;4.39;66.81;102595.16;4131567;28;20134;-67
2024/01/27 02:35:09;;;;;;;8.77;3.07;;;;;;;4.38;66.44;102603.69;4123768;28;20042;-66
2024/01/27 02:37:13;;;;;;;7.45;2.53;;;;;;;4.33;66.42;102603.31;4148094;28;20347;-66
2024/01/27 02:39:16;;;;;;;14.60;3.53;;;;;;;4.26;66.30;102603.63;4130961;28;20100;-66
2024/01/27 02:41:20;;;;;;;9.90;2.92;;;;;;;4.24;66.23;102601.75;4131665;28;20072;-65
2024/01/27 02:43:29;;;;;;;10.45;3.22;;;;;;;4.17;66.80;102606.44;4133120;28;20045;-65
2024/01/27 02:45:32;;;;;;;12.60;3.35;;;;;;;4.14;66.86;102600.16;4132636;28;20039;-65
2024/01/27 02:47:35;;;;;;;11.27;3.22;;;;;;;4.14;66.63;102606.19;4132025;28;20050;-65
2024/01/27 02:49:38;;;;;;;13.75;3.83;;;;;;;4.12;67.13;102606.88;4129394;28;20637;-66
2024/01/27 02:51:41;;;;;;;12.93;3.60;;;;;;;4.09;67.21;102601.47;4132220;28;20481;-66
2024/01/27 02:53:44;;;;;;;9.00;3.45;;;;;;;4.06;67.51;102607.31;4132959;28;20042;-65
2024/01/27 02:55:46;;;;;;;10.75;4.05;;;;;;;4.01;68.08;102608.63;4130528;28;20042;-65
2024/01/27 02:57:51;;;;;;;8.32;3.78;;;;;;;3.88;68.32;102611.94;4131888;28;20089;-65
2024/01/27 02:59:54;;;;;;;10.73;3.05;;;;;;;3.81;68.45;102610.59;4131851;28;20042;-65
2024/01/27 03:01:57;;;;;;;11.25;3.40;;;;;;;3.71;68.56;102620.06;4131933;28;20034;-64
2024/01/27 03:03:59;;;;;;;8.70;3.60;;;;;;;3.66;69.38;102622.28;4133002;28;20130;-64
2024/01/27 03:06:02;;;;;;;12.13;4.53;;;;;;;3.68;69.23;102620.75;4132129;28;20453;-65
2024/01/27 03:08:06;;;;;;;15.40;3.47;;;;;;;3.62;69.26;102616.00;4132978;28;20049;-64
2024/01/27 03:10:10;;;;;;;5.78;2.70;;;;;;;3.66;69.10;102619.69;4125852;28;20047;-65
2024/01/27 03:12:15;;;;;;;15.20;4.25;;;;;;;3.64;69.01;102611.88;4133392;28;20552;-65
2024/01/27 03:14:19;;;;;;;15.10;4.18;;;;;;;3.64;68.64;102616.13;4130729;28;20048;-65
2024/01/27 03:16:22;;;;;;;11.27;3.35;;;;;;;3.62;68.66;102618.59;4131775;28;20480;-64
2024/01/27 03:18:25;;;;;;;8.73;3.60;;;;;;;3.65;68.65;102615.31;4133399;28;20065;-64
2024/01/27 03:20:30;;;;;;;12.23;3.25;;;;;;;3.67;68.79;102621.50;4132220;28;20041;-64
2024/01/27 03:22:33;;;;;;;14.02;3.30;;;;;;;3.69;68.93;102619.94;4133088;28;20042;-64
2024/01/27 03:24:36;;;;;;;11.07;3.83;;;;;;;3.71;69.19;102625.19;4131451;28;20062;-63
2024/01/27 03:26:39;;;;;;;9.23;3.65;;;;;;;3.75;68.76;102627.22;4133238;28;20049;-64
2024/01/27 03:28:42;;;;;;;15.45;3.50;;;;;;;3.70;68.61;102629.47;4132275;28;20030;-66
2024/01/27 03:30:46;;;;;;;10.13;3.58;;;;;;;3.70;68.70;102624.31;4133172;28;20121;-65
2024/01/27 03:32:49;;;;;;;8.80;3.10;;;;;;;3.69;68.67;102622.50;4132247;28;20543;-65
2024/01/27 03:34:52;;;;;;;8.40;4.03;;;;;;;3.71;68.74;102618.41;4131436;28;20449;-64
2024/01/27 03:36:55;;;;;;;14.95;4.10;;;;;;;3.76;68.90;102624.78;4132576;28;20041;-64
2024/01/27 03:38:59;;;;;;;10.15;3.20;;;;;;;3.71;68.74;102615.81;4132282;28;20133;-64
2024/01/27 03:41:02;;;;;;;10.52;3.90;;;;;;;3.70;68.69;102629.47;4132142;28;20169;-64
2024/01/27 03:43:05;;;;;;;10.35;4.70;;;;;;;3.70;68.98;102619.16;4131901;28;20039;-64
2024/01/27 03:45:08;;;;;;;7.70;3.17;;;;;;;3.65;69.27;102623.03;4130020;28;20121;-64
2024/01/27 03:47:14;;;;;;;14.30;3.83;;;;;;;3.67;69.52;102621.50;4131227;28;20516;-64
2024/01/27 03:49:16;;;;;;;16.83;3.60;;;;;;;3.61;69.65;102621.94;4132193;28;20129;-65
2024/01/27 03:51:20;;;;;;;15.50;4.00;;;;;;;3.59;70.29;102627.72;4125729;28;20043;-64
2024/01/27 03:53:23;;;;;;;10.60;4.57;;;;;;;3.59;70.35;102625.16;4132094;28;20366;-64
2024/01/27 03:55:31;;;;;;;10.40;3.40;;;;;;;3.62;70.08;102627.97;4129721;28;20404;-64
2024/01/27 03:57:34;;;;;;;5.93;2.80;;;;;;;3.61;70.44;102633.91;4131458;28;20542;-64
2024/01/27 03:59:37;;;;;;;17.77;4.53;;;;;;;3.56;70.41;102637.78;4126706;28;20042;-62
2024/01/27 04:01:39;;;;;;;12.27;3.88;;;;;;;3.51;70.18;102632.28;4131261;28;20038;-64
2024/01/27 04:03:44;;;;;;;10.65;3.47;;;;;;;3.49;70.35;102632.16;4131972;28;20520;-64
2024/01/27 04:05:47;;;;;;;6.30;3.20;;;;;;;3.44;71.08;102638.59;4131451;28;20129;-64
2024/01/27 04:07:50;;;;;;;10.88;3.53;;;;;;;3.37;70.85;102636.31;4114643;28;20050;-64
2024/01/27 04:09:52;;;;;;;12.90;3.45;;;;;;;3.32;71.54;102637.66;4130592;28;20048;-65
2024/01/27 04:11:56;;;;;;;8.90;3.22;;;;;;;3.32;71.03;102640.22;4130509;28;20047;-64
2024/01/27 04:13:59;;;;;;;8.93;3.80;;;;;;;3.29;71.16;102642.56;4130295;28;20428;-64
2024/01/27 04:16:02;;;;;;;8.80;3.95;;;;;;;3.32;71.54;102642.78;4131537;28;20065;-65
2024/01/27 04:18:07;;;;;;;11.65;3.83;;;;;;;3.29;71.34;102637.41;4132763;28;20043;-65
2024/01/27 04:20:12;;;;;;;7.93;3.38;;;;;;;3.27;71.02;102654.38;4129153;28;20046;-64
2024/01/27 04:22:16;;;;;;;12.38;4.22;;;;;;;3.24;71.22;102659.28;4131631;28;20039;-65
2024/01/27 04:24:18;;;;;;;15.40;3.70;;;;;;;3.25;71.27;102666.22;4131590;28;20129;-64
2024/01/27 04:26:21;;;;;;;10.82;3.42;;;;;;;3.27;71.26;102664.66;4130199;28;20114;-64
2024/01/27 04:28:23;;;;;;;7.38;2.80;;;;;;;3.24;71.64;102664.41;4129354;28;20042;-64
2024/01/27 04:30:26;;;;;;;10.85;3.22;;;;;;;3.24;71.73;102664.41;4129973;28;20057;-64
2024/01/27 04:32:29;;;;;;;8.07;2.78;;;;;;;3.24;71.69;102670.47;4131264;28;20042;-65
2024/01/27 04:34:33;;;;;;;9.90;3.08;;;;;;;3.25;71.57;102671.38;4146752;28;20049;-65
2024/01/27 04:36:37;;;;;;;8.00;3.00;;;;;;;3.26;71.57;102675.75;4147304;28;20657;-65
2024/01/27 04:38:39;;;;;;;16.88;3.35;;;;;;;3.23;71.66;102670.34;4130458;28;20388;-65
2024/01/27 04:40:42;;;;;;;14.40;4.03;;;;;;;3.25;71.25;102676.50;4131622;28;20046;-65
2024/01/27 04:42:45;;;;;;;7.60;3.28;;;;;;;3.25;70.97;102669.69;4129749;28;20076;-65
2024/01/27 04:44:48;;;;;;;8.75;2.90;;;;;;;3.28;70.86;102672.50;4131301;28;20092;-64
2024/01/27 04:46:51;;;;;;;8.73;3.00;;;;;;;3.26;70.79;102670.59;4131382;28;20125;-65
2024/01/27 04:48:54;;;;;;;7.78;2.83;;;;;;;3.23;70.85;102673.81;4146024;28;20252;-65
2024/01/27 04:50:57;;;;;;;10.60;3.20;;;;;;;3.19;70.75;102671.75;4131992;28;20042;-65
2024/01/27 04:53:01;;;;;;;11.57;3.42;;;;;;;3.19;70.50;102668.31;4123305;28;20035;-64
2024/01/27 04:55:05;;;;;;;7.72;3.17;;;;;;;3.11;70.87;102668.59;4130164;28;20046;-64
2024/01/27 04:57:08;;;;;;;7.20;3.33;;;;;;;3.06;71.42;102675.03;4131980;28;20567;-64
2024/01/27 04:59:10;;;;;;;11.48;3.22;;;;;;;3.02;71.81;102670.41;4129280;28;20042;-64
2024/01/27 05:01:13;;;;;;;9.95;3.88;;;;;;;3.04;71.89;102685.94;4128424;28;20074;-63
2024/01/27 05:03:17;;;;;;;7.05;3.47;;;;;;;3.02;71.34;102683.25;4130914;28;20048;-64
2024/01/27 05:05:20;;;;;;;7.32;3.47;;;;;;;3.04;71.49;102679.16;4127909;28;20169;-65
2024/01/27 05:07:23;;;;;;;12.98;3.45;;;;;;;3.02;71.94;102672.97;4130537;28;20495;-66
2024/01/27 05:09:27;;;;;;;11.57;3.25;;;;;;;3.03;72.00;102664.50;4130345;28;20508;-65
2024/01/27 05:11:32;;;;;;;10.23;3.22;;;;;;;3.04;71.35;102674.00;4131608;28;20038;-66
2024/01/27 05:13:35;;;;;;;12.55;3.80;;;;;;;3.04;71.37;102675.66;4131039;28;20080;-67
2024/01/27 05:15:37;;;;;;;7.53;3.10;;;;;;;3.00;71.89;102679.66;4129430;28;20031;-67
2024/01/27 05:17:40;;;;;;;8.38;3.25;;;;;;;2.93;72.04;102683.41;4130913;28;20042;-64
2024/01/27 05:19:43;;;;;;;9.25;3.22;;;;;;;2.94;72.44;102679.19;4131093;28;20034;-66
2024/01/27 05:21:45;;;;;;;8.57;3.28;;;;;;;2.95;72.14;102684.44;4131490;28;20044;-64
2024/01/27 05:23:48;;;;;;;11.15;3.58;;;;;;;3.01;72.14;102685.69;4129993;28;20133;-65
2024/01/27 05:25:53;;;;;;;12.60;3.72;;;;;;;2.98;72.66;102681.22;4129878;28;20444;-65
2024/01/27 05:27:56;;;;;;;9.63;3.17;;;;;;;2.96;72.81;102686.25;4131444;28;20531;-65
2024/01/27 05:29:58;;;;;;;12.07;3.22;;;;;;;2.95;72.85;102691.25;4128038;28;20070;-65
2024/01/27 05:32:01;;;;;;;8.20;4.07;;;;;;;2.91;72.80;102686.66;4131153;28;20472;-65
2024/01/27 05:34:03;;;;;;;15.10;5.57;;;;;;;2.86;72.68;102681.13;4130696;28;20035;-65
2024/01/27 05:36:06;;;;;;;6.68;3.78;;;;;;;2.86;73.06;102686.28;4130566;28;20441;-64
2024/01/27 05:38:09;;;;;;;6.97;3.13;;;;;;;2.87;72.51;102682.03;4122092;28;20516;-65
2024/01/27 05:40:13;;;;;;;10.02;3.28;;;;;;;2.88;72.39;102689.84;4129581;28;20039;-63
2024/01/27 05:42:17;;;;;;;7.65;3.90;;;;;;;2.87;72.61;102697.44;4131237;28;20535;-64
2024/01/27 05:44:20;;;;;;;6.47;3.03;;;;;;;2.85;72.34;102699.88;4129754;28;20048;-64
2024/01/27 05:46:23;;;;;;;8.73;3.25;;;;;;;2.88;72.24;102699.25;4130284;28;20046;-65
2024/01/27 05:48:26;;;;;;;11.70;4.32;;;;;;;2.91;71.90;102700.38;4131418;28;20047;-64
2024/01/27 05:50:31;;;;;;;11.15;3.60;;;;;;;2.93;71.52;102697.94;4130073;28;20126;-64
2024/01/27 05:52:34;;;;;;;;;;;;;;;2.85;71.38;102705.03;4128113;28;20038;-64
2024/01/27 05:54:37;;;;;;;8.27;4.22;;;;;;;2.84;71.88;102704.91;4125694;28;20401;-64
2024/01/27 05:56:40;;;;;;;9.52;3.85;;;;;;;2.79;72.07;102695.13;4129777;28;20097;-64
2024/01/27 05:58:44;;;;;;;8.10;3.85;;;;;;;2.82;72.40;102699.63;4130670;28;20046;-64
2024/01/27 06:00:47;;;;;;;12.25;4.65;;;;;;;2.77;71.92;102704.41;4128347;28;20122;-63
2024/01/27 06:02:50;;;;;;;7.72;3.63;;;;;;;2.83;72.16;102713.38;4130968;28;20528;-63
2024/01/27 06:04:53;;;;;;;10.77;3.90;;;;;;;2.81;72.39;102709.78;4128299;28;20475;-64
2024/01/27 06:06:54;;;;;;;10.07;4.15;;;;;;;2.76;73.02;102710.31;4129039;28;20031;-63
2024/01/27 06:08:57;;;;;;;7.55;3.63;;;;;;;2.75;72.77;102715.31;4129591;28;20484;-64
2024/01/27 06:11:00;;;;;;;14.85;4.63;;;;;;;2.77;72.90;102713.75;4131071;28;20041;-64
2024/01/27 06:13:03;;;;;;;13.07;4.88;;;;;;;2.74;72.72;102706.69;4131083;28;20484;-64
2024/01/27 06:15:10;;;;;;;9.48;4.28;;;;;;;2.73;72.22;102717.75;4128938;28;20121;-64
2024/01/27 06:17:14;;;;;;;10.90;4.45;;;;;;;2.69;73.04;102720.84;4123223;28;20575;-64
2024/01/27 06:19:18;;;;;;;9.98;4.68;;;;;;;2.69;72.43;102725.09;4129934;28;20356;-63
2024/01/27 06:21:20;;;;;;;12.98;5.07;;;;;;;2.61;73.02;102716.72;4145071;28;20056;-64
2024/01/27 06:23:23;;;;;;;11.60;4.93;;;;;;;2.60;72.79;102717.53;4131028;28;20074;-65
2024/01/27 06:25:25;;;;;;;11.88;4.20;;;;;;;2.59;72.93;102720.84;4129335;28;20133;-65
2024/01/27 06:27:30;;;;;;;11.15;4.75;;;;;;;2.61;72.24;102716.72;4141982;28;20178;-64
2024/01/27 06:29:33;;;;;;;9.82;4.50;;;;;;;2.58;72.26;102721.59;4127676;28;20046;-64
2024/01/27 06:31:37;;;;;;;12.07;5.13;;;;;;;2.58;72.35;102724.19;4127399;28;20133;-65
2024/01/27 06:33:40;;;;;;;15.32;6.45;;;;;;;2.57;72.20;102723.28;4130664;28;20054;-64
2024/01/27 06:35:45;;;;;;;10.70;5.47;;;;;;;2.54;72.02;102724.69;4130828;28;20046;-64
2024/01/27 06:37:50;;;;;;;13.88;5.45;;;;;;;2.51;72.46;102725.34;4130238;28;20042;-65
2024/01/27 06:39:53;;;;;;;;;;;;;;;2.40;72.50;102724.44;4129924;28;20116;-65
2024/01/27 06:41:56;;;;;;;13.85;5.57;;;;;;;2.42;73.03;102722.00;4128253;28;19932;-65
2024/01/27 06:43:59;;;;;;;11.57;6.07;;;;;;;2.43;72.30;102718.66;4130542;28;20060;-65
2024/01/27 06:46:01;;;;;;;10.85;4.72;;;;;;;2.41;72.48;102721.09;4119091;28;20137;-65
2024/01/27 06:48:07;;;;;;;12.82;5.85;;;;;;;2.40;73.06;102724.44;4129030;28;20065;-65
2024/01/27 06:50:10;;;;;;;11.88;5.15;;;;;;;2.39;72.90;102720.06;4128525;28;20042;-65
2024/01/27 06:52:13;;;;;;;11.80;5.57;;;;;;;2.42;72.97;102720.34;4133716;28;20042;-65
2024/01/27 06:54:16;;;;;;;14.32;6.47;;;;;;;2.37;73.21;102720.72;4118837;28;20062;-67
2024/01/27 06:56:19;;;;;;;14.25;5.43;;;;;;;2.36;72.88;102718.91;4130616;28;20046;-67
2024/01/27 06:58:22;;;;;;;9.45;5.55;;;;;;;2.33;72.58;102727.25;4132090;28;20531;-67
2024/01/27 07:00:25;;;;;;;13.55;5.05;;;;;;;2.33;73.28;102724.69;4128379;28;20042;-66
2024/01/27 07:02:28;;;;;;;10.00;4.78;;;;;;;2.30;72.90;102715.84;4129183;28;20046;-66
2024/01/27 07:04:32;;;;;;;13.85;6.60;;;;;;;2.24;73.35;102711.09;4130393;28;20046;-66
2024/01/27 07:06:35;;;;;;;9.48;5.05;;;;;;;2.25;73.38;102715.47;4132178;28;20046;-66
2024/01/27 07:08:37;;;;;;;9.65;5.20;;;;;;;2.29;73.16;102716.59;4132374;28;20038;-66
2024/01/27 07:10:40;;;;;;;13.20;4.82;;;;;;;2.38;73.58;102718.28;4130403;28;20121;-66
2024/01/27 07:12:43;;;;;;;8.88;4.40;;;;;;;2.72;74.42;102723.66;4127414;28;20065;-65
2024/01/27 07:14:46;;;;;;;16.05;6.03;;;;;;;2.85;73.65;102722.09;4131145;28;20073;-66
2024/01/27 07:16:49;;;;;;;9.25;6.40;;;;;;;2.76;72.66;102724.78;4128666;28;20145;-67
2024/01/27 07:18:52;;;;;;;12.93;5.70;;;;;;;2.67;72.95;102719.78;4129862;28;20612;-67
2024/01/27 07:20:59;;;;;;;10.80;4.95;;;;;;;2.60;72.41;102723.53;4130851;28;20046;-67
2024/01/27 07:23:02;;;;;;;7.13;4.28;;;;;;;2.52;72.71;102723.69;4132300;28;20116;-67
2024/01/27 07:25:07;;;;;;;11.57;5.00;;;;;;;2.49;72.97;102723.44;4131380;28;20463;-66
2024/01/27 07:27:12;;;;;;;8.77;5.10;;;;;;;2.46;72.69;102728.31;4132524;28;20039;-65
2024/01/27 07:29:15;;;;;;;8.50;4.90;;;;;;;2.38;73.42;102726.00;4131413;28;20049;-66
2024/01/27 07:31:18;;;;;;;8.80;4.88;;;;;;;2.36;73.41;102724.94;4129788;28;20050;-66
2024/01/27 07:33:21;;;;;;;12.30;5.43;;;;;;;2.33;73.13;102729.81;4133528;28;20435;-66
2024/01/27 07:35:24;;;;;;;10.27;5.32;;;;;;;2.33;73.26;102731.50;4133096;28;20128;-66
2024/01/27 07:37:28;;;;;;;10.73;5.60;;;;;;;2.34;73.12;102738.44;4130882;28;20045;-66
2024/01/27 07:39:30;;;;;;;14.35;7.03;;;;;;;2.28;72.72;102738.81;4131923;28;20407;-66
2024/01/27 07:41:33;;;;;;;11.55;6.13;;;;;;;2.27;73.08;102729.31;4131721;28;20049;-66
2024/01/27 07:43:35;;;;;;;15.98;5.68;;;;;;;2.28;73.38;102733.69;4132748;28;20489;-66
2024/01/27 07:45:38;;;;;;;10.57;5.60;;;;;;;2.29;73.40;102729.44;4127783;28;20062;-66
2024/01/27 07:47:41;;;;;;;12.50;5.88;;;;;;;2.33;73.30;102729.81;4131770;28;20049;-65
2024/01/27 07:49:44;;;;;;;13.95;5.75;;;;;;;2.34;73.24;102729.06;4130790;28;20100;-65
2024/01/27 07:51:47;;;;;;;11.77;5.95;;;;;;;2.34;73.11;102744.47;4146498;28;20117;-64
2024/01/27 07:53:52;;;;;;;10.52;6.30;;;;;;;2.37;73.17;102736.13;4136547;28;20037;-65
2024/01/27 07:55:56;;;;;;;12.27;6.18;;;;;;;2.35;72.68;102743.72;4128360;28;20520;-64
2024/01/27 07:57:59;;;;;;;12.43;6.82;;;;;;;2.36;73.17;102744.59;4131845;28;20038;-65
2024/01/27 08:00:02;;;;;;;9.52;5.38;;;;;;;2.36;74.01;102737.78;4133151;28;20547;-65
2024/01/27 08:02:06;;;;;;;10.07;5.23;;;;;;;2.36;73.37;102727.50;4126602;28;20073;-65
2024/01/27 08:04:10;;;;;;;13.00;7.13;;;;;;;2.39;73.53;102724.31;4127062;28;20038;-65
2024/01/27 08:06:16;;;;;;;10.38;5.28;;;;;;;2.43;73.93;102728.94;4138216;28;20101;-65
2024/01/27 08:08:20;;;;;;;13.10;6.30;;;;;;;2.47;74.11;102724.94;4134905;28;20104;-66
2024/01/27 08:10:24;;;;;;;8.82;4.05;;;;;;;2.52;73.70;102726.25;4126150;28;20035;-66
2024/01/27 08:12:27;;;;;;;11.85;5.68;;;;;;;2.48;74.45;102726.75;4127452;28;20115;-65
2024/01/27 08:14:30;;;;;;;12.57;5.55;;;;;;;2.43;73.98;102727.25;4133519;28;20460;-66
2024/01/27 08:16:33;;;;;;;13.32;5.80;;;;;;;2.46;74.62;102733.44;4147048;28;20072;-65
2024/01/27 08:18:36;;;;;;;10.35;4.47;;;;;;;2.50;74.24;102723.56;4131449;28;20519;-65
2024/01/27 08:20:40;;;;;;;12.73;5.60;;;;;;;2.58;74.64;102724.19;4135828;28;20139;-66
2024/01/27 08:22:42;;;;;;;7.78;4.63;;;;;;;2.60;74.08;102728.69;4129461;28;20038;-65
2024/01/27 08:24:45;;;;;;;13.65;6.38;;;;;;;2.63;74.45;102725.47;4131504;28;20374;-65
2024/01/27 08:26:50;;;;;;;11.90;5.95;;;;;;;2.70;74.26;102729.44;4132156;28;20524;-65
2024/01/27 08:28:54;;;;;;;14.95;5.32;;;;;;;2.69;74.64;102731.13;4133172;28;20039;-66
2024/01/27 08:30:59;;;;;;;16.25;5.38;;;;;;;2.62;74.79;102739.97;4129147;28;20121;-65
2024/01/27 08:33:02;;;;;;;10.38;4.65;;;;;;;2.67;74.98;102742.03;4134398;28;20512;-65
2024/01/27 08:35:06;;;;;;;14.65;6.35;;;;;;;2.69;75.06;102737.94;4131548;28;20070;-66
2024/01/27 08:37:18;;;;;;;10.63;5.82;;;;;;;2.79;74.78;102745.63;4137855;28;20107;-64
2024/01/27 08:39:21;;;;;;;12.23;6.32;;;;;;;2.86;75.28;102747.94;4137993;28;20040;-65
2024/01/27 08:41:25;;;;;;;10.38;4.72;;;;;;;2.82;74.46;102734.69;4133695;28;20043;-65
2024/01/27 08:43:32;;;;;;;11.60;5.97;;;;;;;2.85;74.42;102729.78;4130930;28;20045;-66
2024/01/27 08:45:35;;;;;;;14.10;6.40;;;;;;;2.87;74.53;102729.16;4128593;28;20061;-70
2024/01/27 08:47:38;;;;;;;14.15;6.15;;;;;;;2.95;74.31;102734.94;4128947;28;20132;-66
2024/01/27 08:49:41;;;;;;;9.50;5.50;;;;;;;2.99;74.23;102738.66;4130707;28;20447;-66
2024/01/27 08:51:44;;;;;;;11.52;6.13;;;;;;;3.03;74.61;102744.16;4134558;28;20042;-66
2024/01/27 08:53:49;;;;;;;13.00;7.25;;;;;;;3.07;73.92;102748.78;4139691;28;20484;-66
2024/01/27 08:55:52;;;;;;;13.98;7.45;;;;;;;3.10;73.83;102748.13;4128550;28;20126;-66
2024/01/27 08:57:56;;;;;;;14.52;6.82;;;;;;;3.16;73.88;102751.19;4130819;28;20039;-65
2024/01/27 09:00:00;;;;;;;12.83;6.23;;;;;;;3.17;74.37;102754.66;4127466;28;20038;-68
2024/01/27 09:02:03;;;;;;;13.60;6.47;;;;;;;3.21;73.42;102752.44;4126193;28;20042;-68
2024/01/27 09:04:07;;;;;;;11.80;6.00;;;;;;;3.26;73.63;102755.41;4135042;28;20042;-68
2024/01/27 09:06:10;;;;;;;12.10;6.32;;;;;;;3.23;73.41;102762.88;4123215;28;20046;-67
2024/01/27 09:08:13;;;;;;;11.93;7.32;;;;;;;3.23;74.07;102760.31;4134140;28;20046;-64
2024/01/27 09:10:16;;;;;;;14.90;7.50;;;;;;;3.29;74.06;102773.66;4129825;28;20481;-66
2024/01/27 09:12:21;;;;;;;17.42;7.75;;;;;;;3.37;74.24;102782.88;4138806;28;20046;-65
2024/01/27 09:14:24;;;;;;;14.70;6.40;;;;;;;3.41;73.97;102778.91;4134423;28;20035;-65
2024/01/27 09:16:28;;;;;;;15.05;6.97;;;;;;;3.47;74.02;102781.94;4113106;28;20053;-65
2024/01/27 09:18:31;;;;;;;12.80;6.45;;;;;;;3.49;73.78;102785.56;4125541;28;20048;-66
2024/01/27 09:20:33;;;;;;;11.93;6.57;;;;;;;3.51;73.82;102783.13;4134031;28;20038;-66
2024/01/27 09:22:36;;;;;;;15.13;7.68;;;;;;;3.53;73.95;102781.56;4127883;28;20042;-66
2024/01/27 09:24:39;;;;;;;9.45;6.30;;;;;;;3.57;73.13;102776.78;4115032;28;20034;-66
2024/01/27 09:26:42;;;;;;;13.32;7.53;;;;;;;3.58;73.68;102769.97;4129930;28;20038;-65
2024/01/27 09:28:53;;;;;;;11.63;6.70;;;;;;;3.62;72.84;102777.13;4129309;28;20038;-65
2024/01/27 09:30:56;;;;;;;14.20;6.43;;;;;;;3.71;72.89;102788.19;4129112;28;20448;-65
2024/01/27 09:33:01;;;;;;;16.70;6.80;;;;;;;3.76;72.69;102781.72;4127655;28;20452;-66
2024/01/27 09:35:05;;;;;;;13.02;6.55;;;;;;;3.76;72.78;102789.44;4136081;28;20042;-66
2024/01/27 09:37:08;;;;;;;15.48;6.88;;;;;;;3.84;72.73;102785.81;4136025;28;20041;-66